Time;durP1;ratioP1;P1;durP2;ratioP2;P2;SDS_P1;SDS_P2;PMS_P1;PMS_P2;Temp;Humidity;BMP_temperature;BMP_pressure;BME280_temperature;BME280_humidity;BME280_pressure;Samples;Min_cycle;Max_cycle;Signal;HPM_P1;HPM_P2
2022/03/11 00:00:31;;;;;;;18.65;11.35;;;6.80;65.30;;;;;;5050463;28;20044;-53
2022/03/11 00:02:57;;;;;;;24.30;12.10;;;6.80;65.40;;;;;;5044443;28;20091;-50
2022/03/11 00:05:22;;;;;;;19.25;11.35;;;6.70;65.40;;;;;;5040942;28;20037;-51
2022/03/11 00:07:48;;;;;;;19.77;10.40;;;6.70;65.60;;;;;;5043182;28;20076;-53
2022/03/11 00:10:14;;;;;;;20.02;11.07;;;6.70;65.90;;;;;;5048446;28;20040;-53
2022/03/11 00:12:40;;;;;;;21.52;11.82;;;6.60;65.60;;;;;;5051787;28;20360;-53
2022/03/11 00:15:06;;;;;;;17.33;10.73;;;6.60;65.70;;;;;;5050438;28;20043;-54
2022/03/11 00:17:32;;;;;;;17.70;11.38;;;6.60;65.90;;;;;;5035043;28;20125;-51
2022/03/11 00:19:58;;;;;;;18.75;11.43;;;6.50;66.00;;;;;;5050209;28;20059;-53
2022/03/11 00:22:24;;;;;;;17.23;10.52;;;6.50;66.20;;;;;;5051778;28;20037;-53
2022/03/11 00:24:49;;;;;;;18.90;11.57;;;6.50;66.40;;;;;;5051604;28;20044;-50
2022/03/11 00:27:15;;;;;;;19.70;10.98;;;6.50;66.30;;;;;;5051208;28;20037;-53
2022/03/11 00:29:40;;;;;;;22.50;10.75;;;6.50;66.40;;;;;;5051552;28;20048;-50
2022/03/11 00:32:06;;;;;;;17.90;10.45;;;6.40;66.40;;;;;;5051815;28;20036;-52
2022/03/11 00:34:32;;;;;;;17.95;10.82;;;6.40;66.70;;;;;;5051454;28;20481;-50
2022/03/11 00:36:58;;;;;;;16.92;10.90;;;6.40;67.00;;;;;;5048586;28;20044;-53
2022/03/11 00:39:24;;;;;;;17.70;11.45;;;6.40;66.60;;;;;;5022373;28;20175;-52
2022/03/11 00:41:50;;;;;;;16.10;10.43;;;6.40;66.50;;;;;;5049911;28;20511;-51
2022/03/11 00:44:16;;;;;;;21.23;10.85;;;6.30;67.00;;;;;;5050189;28;20168;-52
2022/03/11 00:46:42;;;;;;;19.00;10.80;;;6.30;66.80;;;;;;5051429;28;20116;-50
2022/03/11 00:49:08;;;;;;;20.95;11.45;;;6.30;66.80;;;;;;5050221;28;20037;-51
2022/03/11 00:51:34;;;;;;;19.42;10.90;;;6.30;67.00;;;;;;5050254;28;20043;-51
2022/03/11 00:54:00;;;;;;;17.65;10.95;;;6.20;67.10;;;;;;5053413;28;20037;-50
2022/03/11 00:56:28;;;;;;;16.33;11.10;;;6.20;67.30;;;;;;5049241;28;20485;-51
2022/03/11 00:58:54;;;;;;;18.25;11.13;;;6.20;67.40;;;;;;5042305;28;20048;-50
2022/03/11 01:01:20;;;;;;;21.80;11.00;;;6.20;67.60;;;;;;5051540;28;20489;-51
2022/03/11 01:03:46;;;;;;;20.10;11.65;;;6.10;67.50;;;;;;5053852;28;20045;-52
2022/03/11 01:06:11;;;;;;;17.98;10.57;;;6.10;67.80;;;;;;5037257;28;20121;-50
2022/03/11 01:08:37;;;;;;;18.08;10.43;;;6.00;68.20;;;;;;5055424;28;20082;-51
2022/03/11 01:11:02;;;;;;;18.52;10.63;;;6.00;68.40;;;;;;5055222;28;20536;-54
2022/03/11 01:13:28;;;;;;;16.92;10.10;;;6.00;68.40;;;;;;5054452;28;20045;-54
2022/03/11 01:15:54;;;;;;;16.65;10.02;;;6.00;68.20;;;;;;5055202;28;20041;-55
2022/03/11 01:18:19;;;;;;;16.58;10.38;;;5.90;68.20;;;;;;5054705;28;20041;-55
2022/03/11 01:20:45;;;;;;;17.08;9.98;;;5.90;68.90;;;;;;5054650;28;20094;-55
2022/03/11 01:23:11;;;;;;;18.55;10.23;;;5.80;68.70;;;;;;5047656;28;20120;-55
2022/03/11 01:25:36;;;;;;;17.63;10.63;;;5.80;69.10;;;;;;5053456;28;20477;-54
2022/03/11 01:28:02;;;;;;;16.27;10.73;;;5.70;69.20;;;;;;5054199;28;20390;-54
2022/03/11 01:30:27;;;;;;;16.23;9.63;;;5.70;69.50;;;;;;5054423;28;20040;-55
2022/03/11 01:32:53;;;;;;;17.88;10.32;;;5.70;69.80;;;;;;5054780;28;20174;-54
2022/03/11 01:35:19;;;;;;;18.35;10.15;;;5.60;70.00;;;;;;5054319;28;20049;-55
2022/03/11 01:37:45;;;;;;;19.13;10.80;;;5.80;69.90;;;;;;5054619;28;20036;-55
2022/03/11 01:40:11;;;;;;;22.02;10.77;;;5.70;69.70;;;;;;5054562;28;20041;-55
2022/03/11 01:42:36;;;;;;;16.40;11.10;;;5.70;70.10;;;;;;5054421;28;20115;-55
2022/03/11 01:45:05;;;;;;;18.67;11.13;;;5.60;70.60;;;;;;5054322;28;20190;-55
2022/03/11 01:47:32;;;;;;;16.83;10.45;;;5.30;71.00;;;;;;5053974;28;20037;-55
2022/03/11 01:49:57;;;;;;;18.67;11.00;;;5.50;70.60;;;;;;5054150;28;20544;-54
2022/03/11 01:52:23;;;;;;;17.95;11.32;;;5.50;71.50;;;;;;5054192;28;20144;-55
2022/03/11 01:54:50;;;;;;;19.08;10.93;;;5.50;71.50;;;;;;5054328;28;20037;-56
2022/03/11 01:57:16;;;;;;;21.98;11.73;;;5.50;71.90;;;;;;5052393;28;20049;-55
2022/03/11 01:59:42;;;;;;;20.60;11.25;;;5.50;71.80;;;;;;5054624;28;20045;-56
2022/03/11 02:02:07;;;;;;;22.80;11.57;;;5.50;72.20;;;;;;5053970;28;20033;-56
2022/03/11 02:04:33;;;;;;;18.90;11.23;;;5.50;71.80;;;;;;5052847;28;20306;-56
2022/03/11 02:06:59;;;;;;;18.63;11.20;;;5.40;72.10;;;;;;5053910;28;20041;-54
2022/03/11 02:09:24;;;;;;;21.92;12.00;;;5.40;72.30;;;;;;5053777;28;20043;-55
2022/03/11 02:11:50;;;;;;;19.88;11.35;;;5.30;72.30;;;;;;5054008;28;20036;-52
2022/03/11 02:14:16;;;;;;;19.30;11.80;;;5.40;73.10;;;;;;5054168;28;20041;-55
2022/03/11 02:16:41;;;;;;;19.92;11.27;;;5.40;73.30;;;;;;5053664;28;20072;-55
2022/03/11 02:19:07;;;;;;;19.48;11.60;;;5.40;73.00;;;;;;5054060;28;20091;-56
2022/03/11 02:21:42;;;;;;;20.90;11.18;;;5.40;72.90;;;;;;5053831;28;20091;-56
2022/03/11 02:24:09;;;;;;;19.92;11.52;;;5.30;73.10;;;;;;5053446;28;20072;-56
2022/03/11 02:26:36;;;;;;;17.77;11.30;;;5.40;73.50;;;;;;5053701;28;20044;-53
2022/03/11 02:29:03;;;;;;;20.02;10.80;;;5.40;73.40;;;;;;5052896;28;20041;-55
2022/03/11 02:31:30;;;;;;;20.30;11.55;;;5.30;73.90;;;;;;5053542;28;20037;-55
2022/03/11 02:33:58;;;;;;;17.38;11.15;;;5.30;73.80;;;;;;5053795;28;20048;-55
2022/03/11 02:36:24;;;;;;;20.80;11.32;;;5.30;73.80;;;;;;5052979;28;20122;-55
2022/03/11 02:38:50;;;;;;;19.15;11.02;;;5.30;74.20;;;;;;5035984;28;20045;-55
2022/03/11 02:41:16;;;;;;;18.95;10.93;;;5.30;74.30;;;;;;5035622;28;20508;-55
2022/03/11 02:43:42;;;;;;;18.25;10.70;;;5.40;74.20;;;;;;5053596;28;20048;-53
2022/03/11 02:46:08;;;;;;;18.83;10.88;;;5.30;74.20;;;;;;5051546;28;20041;-54
2022/03/11 02:48:34;;;;;;;19.42;10.88;;;5.20;74.60;;;;;;5052749;28;20123;-55
2022/03/11 02:51:00;;;;;;;18.52;10.93;;;5.10;74.80;;;;;;5052808;28;20159;-54
2022/03/11 02:53:26;;;;;;;18.95;10.55;;;5.10;75.40;;;;;;5052928;28;20428;-55
2022/03/11 02:55:51;;;;;;;19.08;11.20;;;5.20;75.30;;;;;;5051659;28;20051;-55
2022/03/11 02:58:17;;;;;;;17.33;11.02;;;5.10;75.40;;;;;;5053003;28;20045;-56
2022/03/11 03:00:43;;;;;;;24.13;11.40;;;5.10;75.40;;;;;;5052895;28;20485;-55
2022/03/11 03:03:08;;;;;;;19.60;10.80;;;5.10;75.80;;;;;;5053147;28;20095;-56
2022/03/11 03:05:34;;;;;;;17.73;10.90;;;5.00;75.60;;;;;;5052628;28;20508;-55
2022/03/11 03:07:59;;;;;;;17.67;10.77;;;5.00;75.80;;;;;;5045738;28;20043;-54
2022/03/11 03:10:25;;;;;;;17.42;10.05;;;5.00;76.90;;;;;;5053030;28;20101;-55
2022/03/11 03:12:51;;;;;;;19.75;10.88;;;5.00;77.00;;;;;;5035143;28;20033;-55
2022/03/11 03:15:17;;;;;;;21.08;11.20;;;5.00;76.70;;;;;;5052063;28;20044;-56
2022/03/11 03:17:42;;;;;;;17.92;10.85;;;5.00;77.00;;;;;;5052578;28;20513;-56
2022/03/11 03:20:09;;;;;;;19.20;11.05;;;5.10;77.20;;;;;;5052451;28;20033;-54
2022/03/11 03:22:35;;;;;;;20.90;11.85;;;5.00;77.10;;;;;;5052376;28;20120;-55
2022/03/11 03:25:02;;;;;;;19.75;11.13;;;4.90;77.00;;;;;;5052862;28;20067;-55
2022/03/11 03:27:28;;;;;;;21.42;11.15;;;4.80;77.80;;;;;;5052650;28;20303;-55
2022/03/11 03:29:53;;;;;;;22.85;11.95;;;4.80;78.30;;;;;;5052061;28;20124;-56
2022/03/11 03:32:19;;;;;;;19.45;11.70;;;4.80;77.80;;;;;;5052341;28;20043;-55
2022/03/11 03:34:44;;;;;;;19.05;11.70;;;4.80;78.30;;;;;;5052434;28;20124;-52
2022/03/11 03:37:11;;;;;;;19.58;11.40;;;4.80;78.10;;;;;;5051965;28;20386;-55
2022/03/11 03:39:38;;;;;;;20.83;11.95;;;4.80;78.70;;;;;;5052525;28;20041;-56
2022/03/11 03:42:05;;;;;;;19.20;11.70;;;5.00;78.50;;;;;;5052284;28;20481;-56
2022/03/11 03:44:31;;;;;;;21.23;12.38;;;5.00;78.50;;;;;;5051964;28;20090;-56
2022/03/11 03:46:56;;;;;;;21.67;11.98;;;5.00;79.10;;;;;;5051777;28;20040;-55
2022/03/11 03:49:23;;;;;;;20.30;11.48;;;4.90;78.90;;;;;;5052243;28;20086;-56
2022/03/11 03:51:49;;;;;;;26.27;12.93;;;5.00;79.10;;;;;;5050917;28;20044;-54
2022/03/11 03:54:17;;;;;;;20.20;12.25;;;4.90;79.00;;;;;;5052412;28;20068;-56
2022/03/11 03:56:43;;;;;;;21.70;11.85;;;4.80;78.90;;;;;;5051907;28;20048;-55
2022/03/11 03:59:10;;;;;;;30.15;12.68;;;4.80;79.50;;;;;;5051954;28;20036;-56
2022/03/11 04:01:37;;;;;;;23.83;12.77;;;4.90;79.20;;;;;;5051839;28;20123;-56
2022/03/11 04:04:04;;;;;;;24.38;13.20;;;4.80;79.70;;;;;;5051856;28;20405;-55
2022/03/11 04:06:34;;;;;;;23.05;13.27;;;4.80;79.30;;;;;;5051314;28;20060;-55
2022/03/11 04:09:00;;;;;;;21.60;12.23;;;4.90;79.30;;;;;;5052046;28;20044;-56
2022/03/11 04:11:28;;;;;;;22.13;12.38;;;4.80;79.60;;;;;;5051846;28;20128;-56
2022/03/11 04:13:58;;;;;;;22.38;12.25;;;4.80;79.90;;;;;;5051704;28;20044;-54
2022/03/11 04:16:24;;;;;;;26.27;13.40;;;4.80;79.90;;;;;;5031859;28;20429;-55
2022/03/11 04:18:50;;;;;;;23.80;12.90;;;4.70;80.10;;;;;;5031786;28;20033;-55
2022/03/11 04:21:17;;;;;;;21.60;13.15;;;4.60;80.70;;;;;;5032191;28;20037;-55
2022/03/11 04:23:44;;;;;;;27.45;13.25;;;4.70;80.50;;;;;;5032598;28;20065;-55
2022/03/11 04:26:10;;;;;;;26.15;13.48;;;4.70;80.50;;;;;;5040768;28;20059;-53
2022/03/11 04:28:37;;;;;;;22.25;11.90;;;4.60;80.80;;;;;;5050892;28;20037;-55
2022/03/11 04:31:03;;;;;;;24.65;13.70;;;4.70;81.10;;;;;;5052019;28;20079;-55
2022/03/11 04:33:29;;;;;;;24.42;13.10;;;4.60;80.90;;;;;;5051559;28;20047;-55
2022/03/11 04:35:55;;;;;;;23.73;13.35;;;4.60;81.00;;;;;;5051668;28;20044;-55
2022/03/11 04:38:20;;;;;;;24.45;13.77;;;4.60;81.30;;;;;;5051835;28;20148;-56
2022/03/11 04:40:46;;;;;;;23.70;13.63;;;4.60;81.20;;;;;;5051070;28;20095;-56
2022/03/11 04:43:12;;;;;;;21.52;13.07;;;4.70;81.10;;;;;;5050286;28;20520;-56
2022/03/11 04:45:37;;;;;;;23.65;12.95;;;4.60;81.30;;;;;;5051545;28;20041;-56
2022/03/11 04:48:04;;;;;;;23.05;13.65;;;4.60;81.50;;;;;;5051064;28;20044;-57
2022/03/11 04:50:29;;;;;;;22.25;13.60;;;4.60;81.20;;;;;;5050229;28;20045;-55
2022/03/11 04:52:55;;;;;;;24.55;13.73;;;4.50;81.70;;;;;;5050467;28;20112;-55
2022/03/11 04:55:22;;;;;;;23.25;13.75;;;4.40;81.70;;;;;;5026711;28;20038;-50
2022/03/11 04:57:48;;;;;;;23.58;14.55;;;4.40;81.90;;;;;;5051276;28;20051;-50
2022/03/11 05:00:15;;;;;;;26.30;13.32;;;4.30;82.00;;;;;;5051805;28;20037;-50
2022/03/11 05:02:44;;;;;;;26.70;14.98;;;4.40;82.60;;;;;;5050492;28;20127;-50
2022/03/11 05:05:11;;;;;;;24.13;14.20;;;4.40;82.50;;;;;;5049686;28;20505;-50
2022/03/11 05:07:38;;;;;;;24.38;13.45;;;4.50;82.00;;;;;;5046120;28;20401;-53
2022/03/11 05:10:05;;;;;;;24.52;14.30;;;4.50;82.20;;;;;;5044617;28;20073;-54
2022/03/11 05:12:31;;;;;;;26.70;14.30;;;4.40;82.50;;;;;;5049863;28;20051;-55
2022/03/11 05:14:57;;;;;;;26.02;14.65;;;4.40;83.00;;;;;;5050666;28;20489;-55
2022/03/11 05:17:23;;;;;;;23.30;13.80;;;4.30;82.70;;;;;;5043376;28;20041;-55
2022/03/11 05:19:49;;;;;;;25.10;13.52;;;4.30;83.40;;;;;;5033303;28;20072;-55
2022/03/11 05:22:16;;;;;;;25.63;14.48;;;4.30;83.20;;;;;;5054949;28;20048;-56
2022/03/11 05:24:41;;;;;;;25.25;14.63;;;4.30;83.40;;;;;;5051243;28;20106;-56
2022/03/11 05:27:07;;;;;;;26.40;14.32;;;4.40;83.30;;;;;;5050991;28;20685;-56
2022/03/11 05:29:34;;;;;;;25.63;13.68;;;4.40;83.20;;;;;;5050888;28;20036;-55
2022/03/11 05:32:00;;;;;;;27.55;14.98;;;4.40;83.60;;;;;;5051205;28;20041;-54
2022/03/11 05:34:26;;;;;;;26.45;14.60;;;4.30;83.70;;;;;;5050923;28;20535;-54
2022/03/11 05:36:51;;;;;;;26.42;13.95;;;4.20;83.70;;;;;;5050539;28;20120;-54
2022/03/11 05:39:17;;;;;;;27.45;14.80;;;4.10;84.20;;;;;;5051225;28;20041;-55
2022/03/11 05:41:44;;;;;;;28.48;16.23;;;4.10;84.10;;;;;;5053566;28;20032;-55
2022/03/11 05:44:10;;;;;;;26.63;15.32;;;4.20;84.30;;;;;;5054662;28;20045;-55
2022/03/11 05:46:36;;;;;;;26.63;15.88;;;4.10;84.70;;;;;;5054669;28;20043;-55
2022/03/11 05:49:02;;;;;;;25.02;15.43;;;4.00;84.90;;;;;;5053453;28;20110;-54
2022/03/11 05:51:27;;;;;;;25.42;13.48;;;4.00;84.80;;;;;;5044512;28;20033;-53
2022/03/11 05:53:53;;;;;;;26.77;14.50;;;4.00;85.70;;;;;;5048115;28;20106;-55
2022/03/11 05:56:20;;;;;;;29.15;15.93;;;4.20;85.00;;;;;;5054194;28;20049;-54
2022/03/11 05:58:46;;;;;;;28.00;15.63;;;4.10;84.80;;;;;;5069856;28;20041;-57
2022/03/11 06:01:13;;;;;;;27.52;14.77;;;4.00;85.30;;;;;;5053425;28;20037;-56
2022/03/11 06:03:39;;;;;;;28.90;15.70;;;3.90;85.70;;;;;;5053874;28;20409;-53
2022/03/11 06:06:05;;;;;;;28.55;16.10;;;3.90;86.40;;;;;;5053757;28;20068;-55
2022/03/11 06:08:30;;;;;;;27.25;15.95;;;3.80;86.00;;;;;;5054313;28;20079;-55
2022/03/11 06:10:56;;;;;;;30.73;16.55;;;3.80;86.50;;;;;;5054246;28;20045;-55
2022/03/11 06:13:21;;;;;;;29.10;16.30;;;3.80;86.90;;;;;;5054045;28;20041;-55
2022/03/11 06:15:47;;;;;;;28.15;16.35;;;3.80;86.60;;;;;;5054229;28;20044;-55
2022/03/11 06:18:15;;;;;;;30.52;16.35;;;3.80;87.30;;;;;;5053051;28;20041;-55
2022/03/11 06:20:41;;;;;;;30.90;16.20;;;3.80;87.20;;;;;;5035934;28;20048;-55
2022/03/11 06:23:07;;;;;;;30.88;16.75;;;3.80;87.50;;;;;;5052934;28;20033;-55
2022/03/11 06:25:33;;;;;;;29.33;17.42;;;3.90;87.30;;;;;;5036287;28;20062;-55
2022/03/11 06:27:58;;;;;;;30.48;17.42;;;3.90;86.20;;;;;;5053593;28;20139;-55
2022/03/11 06:30:24;;;;;;;32.97;16.83;;;3.80;87.10;;;;;;5054059;28;20123;-56
2022/03/11 06:32:50;;;;;;;35.67;17.45;;;3.80;87.30;;;;;;5053277;28;20044;-55
2022/03/11 06:35:16;;;;;;;35.08;18.02;;;3.70;87.50;;;;;;5053635;28;20158;-55
2022/03/11 06:37:46;;;;;;;31.00;17.20;;;3.70;87.80;;;;;;5053551;28;20106;-54
2022/03/11 06:40:12;;;;;;;31.95;16.98;;;3.80;88.10;;;;;;5053693;28;20525;-55
2022/03/11 06:42:44;;;;;;;29.65;16.55;;;3.70;88.00;;;;;;5053293;28;20037;-53
2022/03/11 06:45:11;;;;;;;31.27;16.83;;;3.80;88.40;;;;;;5044665;28;20041;-54
2022/03/11 06:47:37;;;;;;;32.75;17.67;;;3.90;87.90;;;;;;5045163;28;20033;-54
2022/03/11 06:50:04;;;;;;;28.35;16.42;;;3.80;87.60;;;;;;5052922;28;20044;-53
2022/03/11 06:52:30;;;;;;;28.77;16.42;;;3.90;88.10;;;;;;5052970;28;20382;-53
2022/03/11 06:54:56;;;;;;;29.75;14.70;;;3.90;88.00;;;;;;5053155;28;20040;-55
2022/03/11 06:57:21;;;;;;;31.75;17.98;;;4.00;87.30;;;;;;5053271;28;20749;-54
2022/03/11 06:59:48;;;;;;;33.13;18.20;;;4.00;87.10;;;;;;5051062;28;20052;-55
2022/03/11 07:02:14;;;;;;;32.45;17.08;;;4.00;87.40;;;;;;5052261;28;20063;-55
2022/03/11 07:04:40;;;;;;;32.50;17.23;;;4.00;87.40;;;;;;5043122;28;20037;-53
2022/03/11 07:07:06;;;;;;;33.03;17.55;;;4.10;87.20;;;;;;5052354;28;20044;-52
2022/03/11 07:09:33;;;;;;;31.77;17.70;;;4.00;87.00;;;;;;5046807;28;20029;-53
2022/03/11 07:12:01;;;;;;;30.70;14.65;;;4.10;87.50;;;;;;5042216;28;20037;-53
2022/03/11 07:14:35;;;;;;;32.25;16.90;;;4.10;87.40;;;;;;5042016;28;20037;-53
2022/03/11 07:17:01;;;;;;;31.88;16.10;;;4.20;86.60;;;;;;5044410;28;20448;-53
2022/03/11 07:19:29;;;;;;;31.10;17.85;;;4.30;86.30;;;;;;5043116;28;20044;-54
2022/03/11 07:21:59;;;;;;;31.27;17.70;;;4.30;86.10;;;;;;5038138;28;20095;-54
2022/03/11 07:24:25;;;;;;;30.10;17.40;;;4.40;85.90;;;;;;5048229;28;20045;-54
2022/03/11 07:26:51;;;;;;;29.65;17.25;;;4.40;86.00;;;;;;5042041;28;20033;-54
2022/03/11 07:29:17;;;;;;;32.17;16.52;;;4.40;86.40;;;;;;5045154;28;20495;-54
2022/03/11 07:31:43;;;;;;;30.25;17.10;;;4.50;86.50;;;;;;5043079;28;20087;-54
2022/03/11 07:34:08;;;;;;;29.05;14.57;;;4.60;85.50;;;;;;5046024;28;20554;-53
2022/03/11 07:36:34;;;;;;;34.50;16.88;;;4.80;84.50;;;;;;5041837;28;20044;-53
2022/03/11 07:39:01;;;;;;;30.88;16.55;;;4.80;84.20;;;;;;5045056;28;20117;-53
2022/03/11 07:41:28;;;;;;;31.48;17.70;;;4.90;84.40;;;;;;5046645;28;20036;-49
2022/03/11 07:43:54;;;;;;;31.00;17.52;;;4.90;84.20;;;;;;5014378;28;20126;-51
2022/03/11 07:46:22;;;;;;;32.35;16.88;;;5.00;83.60;;;;;;5048428;28;20477;-51
2022/03/11 07:48:49;;;;;;;27.70;16.27;;;5.20;83.10;;;;;;5050715;28;20076;-49
2022/03/11 07:51:14;;;;;;;32.40;17.20;;;5.20;83.00;;;;;;5050797;28;20052;-51
2022/03/11 07:53:40;;;;;;;31.63;16.15;;;5.30;83.40;;;;;;5052279;28;20041;-53
2022/03/11 07:56:07;;;;;;;30.10;15.45;;;5.40;81.90;;;;;;5051074;28;20037;-49
2022/03/11 07:58:33;;;;;;;29.15;16.90;;;5.50;81.60;;;;;;5051957;28;20094;-52
2022/03/11 08:00:59;;;;;;;28.20;16.27;;;5.50;81.80;;;;;;5067133;28;20056;-50
2022/03/11 08:03:25;;;;;;;31.35;17.05;;;5.60;81.40;;;;;;5051390;28;20037;-51
2022/03/11 08:05:51;;;;;;;28.23;15.65;;;5.70;79.80;;;;;;5049718;28;20045;-53
2022/03/11 08:08:16;;;;;;;29.55;17.15;;;5.80;79.90;;;;;;5048979;28;20033;-50
2022/03/11 08:10:42;;;;;;;31.90;16.98;;;5.90;79.60;;;;;;5040142;28;20405;-50
2022/03/11 08:13:08;;;;;;;29.08;17.40;;;5.90;79.40;;;;;;5033563;28;20052;-50
2022/03/11 08:15:36;;;;;;;27.05;15.20;;;6.10;78.60;;;;;;5031849;28;20041;-50
2022/03/11 08:18:03;;;;;;;31.40;18.00;;;6.10;78.80;;;;;;5031583;28;20072;-50
2022/03/11 08:20:29;;;;;;;30.45;16.65;;;6.20;77.80;;;;;;5031641;28;20046;-51
2022/03/11 08:22:55;;;;;;;27.58;15.80;;;6.20;77.80;;;;;;5031927;28;20038;-50
2022/03/11 08:25:26;;;;;;;29.95;16.50;;;6.30;77.40;;;;;;5046114;28;20052;-50
2022/03/11 08:27:56;;;;;;;30.63;14.18;;;6.40;77.60;;;;;;5033619;28;20041;-50
2022/03/11 08:30:22;;;;;;;31.83;17.48;;;6.50;76.10;;;;;;5051668;28;20040;-50
2022/03/11 08:32:48;;;;;;;30.52;17.10;;;6.50;76.60;;;;;;5051480;28;20118;-50
2022/03/11 08:35:14;;;;;;;26.63;13.90;;;6.50;76.50;;;;;;5051421;28;20040;-50
2022/03/11 08:37:41;;;;;;;31.05;16.55;;;6.60;74.80;;;;;;5051638;28;20028;-51
2022/03/11 08:40:09;;;;;;;32.25;17.25;;;6.70;74.70;;;;;;5051337;28;20071;-50
2022/03/11 08:42:37;;;;;;;28.60;16.17;;;6.70;75.80;;;;;;5051352;28;20064;-50
2022/03/11 08:45:04;;;;;;;34.65;18.13;;;6.80;75.60;;;;;;5031980;28;20051;-50
2022/03/11 08:47:30;;;;;;;30.45;16.35;;;6.80;75.40;;;;;;5033784;28;20029;-49
2022/03/11 08:49:57;;;;;;;26.90;15.02;;;6.90;75.90;;;;;;5052471;28;20037;-50
2022/03/11 08:52:26;;;;;;;29.80;15.50;;;7.00;73.70;;;;;;5052121;28;20037;-51
2022/03/11 08:54:52;;;;;;;30.85;15.77;;;7.10;73.50;;;;;;5051861;28;20045;-49
2022/03/11 08:57:18;;;;;;;28.05;16.15;;;7.20;71.40;;;;;;5051894;28;20132;-49
2022/03/11 08:59:44;;;;;;;29.80;15.60;;;7.20;72.30;;;;;;5051581;28;20128;-50
2022/03/11 09:02:10;;;;;;;31.08;14.65;;;7.30;72.00;;;;;;5051626;28;20124;-50
2022/03/11 09:04:36;;;;;;;26.77;14.38;;;7.30;71.00;;;;;;5050126;28;20044;-50
2022/03/11 09:07:03;;;;;;;27.65;14.73;;;7.40;70.90;;;;;;5051273;28;20501;-50
2022/03/11 09:09:30;;;;;;;28.63;14.45;;;7.40;70.40;;;;;;5066541;28;20117;-50
2022/03/11 09:11:56;;;;;;;29.27;16.15;;;7.40;70.20;;;;;;5051549;28;20071;-50
2022/03/11 09:14:22;;;;;;;29.83;18.08;;;7.50;71.50;;;;;;5051551;28;20048;-50
2022/03/11 09:16:48;;;;;;;30.80;17.10;;;7.50;71.30;;;;;;5054701;28;20045;-50
2022/03/11 09:19:14;;;;;;;30.45;16.98;;;7.60;71.40;;;;;;5054102;28;20037;-50
2022/03/11 09:21:41;;;;;;;28.55;16.45;;;7.70;71.30;;;;;;5055234;28;20041;-50
2022/03/11 09:24:07;;;;;;;31.35;17.40;;;7.80;70.80;;;;;;5055124;28;20052;-50
2022/03/11 09:26:33;;;;;;;27.50;15.75;;;7.90;70.70;;;;;;5053429;28;20083;-50
2022/03/11 09:28:59;;;;;;;29.20;15.98;;;8.00;70.80;;;;;;5053600;28;20362;-51
2022/03/11 09:31:25;;;;;;;27.92;16.70;;;8.10;69.50;;;;;;5037356;28;20432;-49
2022/03/11 09:33:51;;;;;;;28.17;15.23;;;8.20;69.90;;;;;;5052618;28;20094;-50
2022/03/11 09:36:17;;;;;;;30.60;16.25;;;8.30;69.70;;;;;;5036003;28;20040;-54
2022/03/11 09:38:43;;;;;;;26.50;16.17;;;8.40;67.00;;;;;;5050851;28;20037;-50
2022/03/11 09:41:09;;;;;;;28.20;16.15;;;8.50;66.60;;;;;;5053489;28;20048;-49
2022/03/11 09:43:37;;;;;;;27.25;16.45;;;8.60;66.80;;;;;;5053967;28;20033;-50
2022/03/11 09:46:03;;;;;;;26.88;15.18;;;8.60;67.00;;;;;;5054410;28;20433;-50
2022/03/11 09:48:30;;;;;;;25.20;14.00;;;8.70;66.70;;;;;;5054994;28;20043;-50
2022/03/11 09:50:58;;;;;;;25.67;14.50;;;8.80;63.00;;;;;;5053199;28;20040;-50
2022/03/11 09:53:24;;;;;;;28.00;15.85;;;9.00;62.20;;;;;;5052931;28;20037;-53
2022/03/11 09:55:50;;;;;;;28.02;15.85;;;8.90;63.40;;;;;;5051698;28;20063;-50
2022/03/11 09:58:15;;;;;;;25.45;15.70;;;9.10;62.10;;;;;;5049901;28;20033;-54
2022/03/11 10:00:41;;;;;;;28.70;14.32;;;9.20;62.70;;;;;;5039648;28;20048;-54
2022/03/11 10:03:07;;;;;;;27.40;15.75;;;9.40;59.90;;;;;;5035470;28;20055;-52
2022/03/11 10:05:46;;;;;;;25.40;14.88;;;9.80;60.60;;;;;;5043064;28;20533;-54
2022/03/11 10:08:12;;;;;;;24.52;13.05;;;9.50;58.90;;;;;;5036277;28;20033;-54
2022/03/11 10:10:38;;;;;;;23.52;14.20;;;9.50;60.00;;;;;;5030423;28;20033;-53
2022/03/11 10:13:07;;;;;;;25.90;14.30;;;9.60;58.50;;;;;;5044504;28;20067;-53
2022/03/11 10:15:33;;;;;;;24.80;15.43;;;9.60;57.60;;;;;;5039347;28;20041;-55
2022/03/11 10:18:02;;;;;;;24.35;14.93;;;9.60;58.80;;;;;;5040827;28;20516;-52
2022/03/11 10:20:30;;;;;;;25.33;13.57;;;9.70;57.60;;;;;;5042742;28;20059;-53
2022/03/11 10:22:57;;;;;;;26.95;15.52;;;9.70;57.70;;;;;;5045763;28;20048;-54
2022/03/11 10:25:28;;;;;;;27.50;15.57;;;9.70;58.00;;;;;;5041996;28;20048;-54
2022/03/11 10:28:06;;;;;;;27.17;15.23;;;9.80;57.60;;;;;;5028142;28;20496;-54
2022/03/11 10:30:34;;;;;;;26.75;15.20;;;9.90;57.50;;;;;;5041410;28;20094;-53
2022/03/11 10:33:03;;;;;;;30.30;15.88;;;9.90;56.50;;;;;;5042248;28;20041;-51
2022/03/11 10:35:40;;;;;;;28.98;16.40;;;10.00;56.80;;;;;;5051305;28;20167;-51
2022/03/11 10:38:09;;;;;;;25.23;15.23;;;10.00;56.10;;;;;;5037992;28;20048;-54
2022/03/11 10:40:56;;;;;;;26.25;15.20;;;9.90;57.50;;;;;;5039370;28;20049;-54
2022/03/11 10:43:27;;;;;;;27.60;16.33;;;10.00;56.60;;;;;;5040644;28;20049;-54
2022/03/11 10:46:09;;;;;;;29.25;15.95;;;10.00;57.10;;;;;;5034600;28;20049;-54
2022/03/11 10:48:47;;;;;;;24.23;14.95;;;10.00;57.10;;;;;;5044270;28;20045;-54
2022/03/11 10:51:26;;;;;;;28.73;15.55;;;10.10;56.10;;;;;;5053461;28;20041;-54
2022/03/11 10:53:53;;;;;;;25.48;16.45;;;10.10;57.00;;;;;;5053381;28;20033;-53
2022/03/11 10:56:35;;;;;;;28.17;15.50;;;10.10;58.30;;;;;;5053466;28;20037;-53
2022/03/11 10:59:20;;;;;;;27.80;16.33;;;10.20;56.80;;;;;;5047280;28;20081;-52
2022/03/11 11:01:46;;;;;;;26.65;16.05;;;10.30;57.10;;;;;;5048976;28;20033;-54
2022/03/11 11:04:14;;;;;;;24.02;16.02;;;10.40;57.00;;;;;;5053478;28;20048;-54
2022/03/11 11:06:41;;;;;;;29.75;16.80;;;10.40;58.00;;;;;;5051000;28;20036;-53
2022/03/11 11:09:10;;;;;;;27.20;15.65;;;10.50;56.60;;;;;;5051804;28;20045;-54
2022/03/11 11:11:36;;;;;;;30.40;17.23;;;10.50;56.20;;;;;;5052166;28;20432;-52
2022/03/11 11:14:05;;;;;;;26.95;16.45;;;10.50;55.80;;;;;;5031323;28;20041;-53
2022/03/11 11:16:39;;;;;;;27.70;15.90;;;10.60;55.60;;;;;;5051620;28;20178;-50
2022/03/11 11:19:06;;;;;;;26.10;17.05;;;10.60;55.70;;;;;;5053273;28;20072;-51
2022/03/11 11:21:34;;;;;;;26.63;15.00;;;10.60;55.90;;;;;;5052527;28;20029;-52
2022/03/11 11:24:00;;;;;;;28.27;16.52;;;10.70;55.20;;;;;;5052639;28;20041;-52
2022/03/11 11:26:27;;;;;;;29.70;17.40;;;10.70;55.30;;;;;;5050908;28;20033;-49
2022/03/11 11:28:55;;;;;;;27.80;17.27;;;10.70;55.60;;;;;;5051839;28;20505;-49
2022/03/11 11:31:22;;;;;;;27.15;15.90;;;10.70;55.60;;;;;;5052514;28;20072;-50
2022/03/11 11:33:49;;;;;;;31.20;17.05;;;10.80;55.10;;;;;;5052018;28;20443;-50
2022/03/11 11:36:36;;;;;;;26.15;17.02;;;10.70;55.40;;;;;;5051090;28;20041;-50
2022/03/11 11:39:11;;;;;;;30.05;17.05;;;10.80;56.60;;;;;;5048723;28;20089;-50
2022/03/11 11:41:37;;;;;;;25.75;16.50;;;10.80;57.10;;;;;;5050676;28;20172;-52
2022/03/11 11:44:05;;;;;;;27.42;17.10;;;11.00;55.90;;;;;;5044772;28;20581;-50
2022/03/11 11:46:33;;;;;;;30.00;17.83;;;11.10;55.60;;;;;;5050298;28;20048;-52
2022/03/11 11:49:02;;;;;;;29.27;17.45;;;11.10;55.30;;;;;;5046979;28;20036;-49
2022/03/11 11:51:37;;;;;;;25.65;16.17;;;11.10;55.90;;;;;;5034024;28;20041;-51
2022/03/11 11:54:08;;;;;;;28.02;17.25;;;11.20;55.30;;;;;;5050759;28;20072;-52
2022/03/11 11:56:37;;;;;;;27.87;17.57;;;11.30;55.20;;;;;;5049803;28;20068;-52
2022/03/11 11:59:08;;;;;;;27.67;17.38;;;11.20;55.70;;;;;;5050895;28;20036;-52
2022/03/11 12:01:44;;;;;;;29.93;15.50;;;11.30;55.50;;;;;;5050348;28;20048;-52
2022/03/11 12:04:27;;;;;;;29.55;17.95;;;11.40;53.30;;;;;;5051428;28;20469;-52
2022/03/11 12:07:09;;;;;;;29.50;16.75;;;11.40;54.90;;;;;;5047492;28;20052;-53
2022/03/11 12:09:38;;;;;;;29.40;15.77;;;11.40;54.40;;;;;;5050964;28;20033;-53
2022/03/11 12:12:09;;;;;;;26.42;16.13;;;11.50;54.30;;;;;;5051400;28;20041;-53
2022/03/11 12:15:10;;;;;;;29.67;17.45;;;11.60;54.00;;;;;;5051220;28;20040;-54
2022/03/11 12:17:44;;;;;;;27.70;16.70;;;11.60;53.30;;;;;;5050051;28;20048;-53
2022/03/11 12:20:34;;;;;;;29.23;16.35;;;11.60;54.50;;;;;;5049200;28;20170;-54
2022/03/11 12:23:20;;;;;;;23.15;15.55;;;11.70;52.70;;;;;;5050982;28;20120;-54
2022/03/11 12:25:50;;;;;;;25.30;16.65;;;11.70;52.90;;;;;;5048236;28;20053;-53
2022/03/11 12:28:33;;;;;;;27.00;16.52;;;11.70;53.80;;;;;;5050214;28;20040;-52
2022/03/11 12:30:59;;;;;;;27.90;16.92;;;11.80;54.20;;;;;;5049920;28;20037;-53
2022/03/11 12:33:39;;;;;;;29.75;17.02;;;11.90;52.40;;;;;;5050642;28;20139;-51
2022/03/11 12:36:12;;;;;;;29.70;17.67;;;11.90;52.80;;;;;;5050462;28;20425;-54